Time;durP1;ratioP1;P1;durP2;ratioP2;P2;SDS_P1;SDS_P2;PMS_P1;PMS_P2;Temp;Humidity;BMP_temperature;BMP_pressure;BME280_temperature;BME280_humidity;BME280_pressure;Samples;Min_cycle;Max_cycle;Signal;HPM_P1;HPM_P2
2023/06/15 00:02:28;;;;;;;3.80;2.70;;;18.90;99.90;;;;;;6251484;23;20470;-79
2023/06/15 00:04:57;;;;;;;3.57;2.73;;;18.90;1.00;;;;;;6252169;23;20454;-79
2023/06/15 00:07:33;;;;;;;4.53;2.80;;;18.90;99.90;;;;;;6252278;23;20560;-80
2023/06/15 00:10:08;;;;;;;5.97;3.17;;;18.90;99.90;;;;;;6252718;23;20407;-79
2023/06/15 00:12:38;;;;;;;6.93;3.13;;;18.80;99.90;;;;;;6252549;23;20450;-79
2023/06/15 00:15:06;;;;;;;5.63;2.80;;;18.70;99.90;;;;;;6251603;23;20473;-81
2023/06/15 00:17:37;;;;;;;4.63;2.70;;;18.70;99.90;;;;;;6251692;23;20425;-80
2023/06/15 00:23:17;;;;;;;3.90;2.80;;;18.60;99.90;;;;;;6252307;23;20410;-81
2023/06/15 00:26:13;;;;;;;4.20;2.50;;;18.60;99.90;;;;;;6248024;23;20419;-80
2023/06/15 00:28:54;;;;;;;3.80;2.40;;;18.60;1.00;;;;;;6237007;23;20469;-84
2023/06/15 00:35:24;;;;;;;7.63;3.83;;;18.50;1.00;;;;;;6140176;23;20538;-83
2023/06/15 00:40:52;;;;;;;7.10;3.27;;;18.50;1.00;;;;;;6234670;23;20495;-80
2023/06/15 00:43:24;;;;;;;5.07;3.50;;;18.50;99.90;;;;;;6252395;23;20441;-79
2023/06/15 00:45:50;;;;;;;3.67;2.80;;;18.40;1.00;;;;;;6252771;23;20462;-79
2023/06/15 00:48:17;;;;;;;5.20;3.20;;;18.40;1.00;;;;;;6252422;23;20558;-80
2023/06/15 00:50:46;;;;;;;4.77;3.13;;;18.40;1.00;;;;;;6253472;23;20482;-81
2023/06/15 00:53:16;;;;;;;7.10;3.30;;;18.30;1.00;;;;;;6252435;22;20435;-79
2023/06/15 00:55:44;;;;;;;4.20;2.87;;;18.30;1.00;;;;;;6252338;23;20418;-79
2023/06/15 01:00:57;;;;;;;7.37;4.00;;;18.30;1.00;;;;;;6248005;23;20414;-84
2023/06/15 01:03:30;;;;;;;6.53;4.10;;;18.30;1.00;;;;;;6252019;23;20430;-80
2023/06/15 01:06:01;;;;;;;7.00;4.33;;;18.30;1.00;;;;;;6251792;23;20429;-79
2023/06/15 01:08:28;;;;;;;5.17;3.60;;;18.20;1.00;;;;;;6253058;23;20439;-83
2023/06/15 01:11:00;;;;;;;6.33;4.40;;;18.20;1.00;;;;;;6252930;23;20430;-79
2023/06/15 01:13:33;;;;;;;8.50;3.67;;;18.20;1.00;;;;;;6251920;23;20498;-79
2023/06/15 01:16:07;;;;;;;5.90;3.63;;;18.20;1.00;;;;;;6252496;23;20826;-84
2023/06/15 01:18:36;;;;;;;10.77;4.80;;;18.20;1.00;;;;;;6253213;23;20430;-79
2023/06/15 01:21:06;;;;;;;7.17;4.80;;;18.10;1.00;;;;;;6251618;23;20468;-79
2023/06/15 01:23:38;;;;;;;7.10;4.23;;;18.10;1.00;;;;;;6251544;23;20428;-80
2023/06/15 01:26:09;;;;;;;5.30;4.03;;;18.10;1.00;;;;;;6251602;23;20892;-84
2023/06/15 01:28:41;;;;;;;5.63;4.50;;;18.10;1.00;;;;;;6248605;23;21012;-83
2023/06/15 01:31:12;;;;;;;7.80;4.30;;;18.00;1.00;;;;;;6249805;23;20853;-79
2023/06/15 01:33:46;;;;;;;8.57;5.53;;;18.00;1.00;;;;;;6249509;23;20518;-80
2023/06/15 01:36:13;;;;;;;5.60;3.93;;;17.90;7.40;;;;;;6251294;23;20422;-79
2023/06/15 01:38:41;;;;;;;6.37;4.10;;;17.90;14.30;;;;;;6250498;23;20457;-83
2023/06/15 01:41:09;;;;;;;6.37;4.20;;;17.90;9.70;;;;;;6253974;23;20415;-79
2023/06/15 01:43:43;;;;;;;4.73;3.60;;;17.80;99.90;;;;;;6254657;23;20462;-79
2023/06/15 01:46:38;;;;;;;;;;;;;;;;;;;;;
2023/06/15 01:49:15;;;;;;;7.67;4.07;;;17.60;99.90;;;;;;6249262;23;20485;-83
2023/06/15 01:51:56;;;;;;;5.83;4.27;;;17.60;99.90;;;;;;6252564;23;20392;-82
2023/06/15 01:54:41;;;;;;;5.93;3.73;;;17.60;99.90;;;;;;6249525;22;20439;-78
2023/06/15 01:57:25;;;;;;;7.97;3.83;;;17.40;99.90;;;;;;6249627;23;20959;-79
2023/06/15 02:00:03;;;;;;;6.70;4.07;;;17.40;99.90;;;;;;6252790;23;20718;-83
2023/06/15 02:02:30;;;;;;;7.63;4.07;;;17.40;99.90;;;;;;6252216;23;20451;-79
2023/06/15 02:04:57;;;;;;;7.00;4.50;;;17.30;99.90;;;;;;6248675;22;20462;-81
2023/06/15 02:07:24;;;;;;;6.30;4.00;;;17.30;99.90;;;;;;6249774;23;20476;-80
2023/06/15 02:09:52;;;;;;;7.73;3.50;;;17.30;99.90;;;;;;6250734;23;20829;-82
2023/06/15 02:12:20;;;;;;;5.80;4.30;;;17.30;99.90;;;;;;6251523;23;20406;-82
2023/06/15 02:14:50;;;;;;;5.90;3.90;;;17.20;99.90;;;;;;6250148;23;20505;-84
2023/06/15 02:17:17;;;;;;;5.07;3.63;;;17.20;99.90;;;;;;6250803;23;20509;-83
2023/06/15 02:19:45;;;;;;;13.30;4.83;;;17.20;99.90;;;;;;6250893;23;20410;-80
2023/06/15 02:22:11;;;;;;;7.90;3.93;;;17.20;99.90;;;;;;6249958;23;20497;-82
2023/06/15 02:24:38;;;;;;;6.57;3.93;;;17.10;99.90;;;;;;6248950;23;20519;-81
2023/06/15 02:27:06;;;;;;;5.97;4.00;;;17.10;99.90;;;;;;6250287;23;20422;-82
2023/06/15 02:29:34;;;;;;;10.27;3.90;;;17.10;1.00;;;;;;6250043;23;20522;-82
2023/06/15 02:32:01;;;;;;;9.30;3.80;;;17.10;99.90;;;;;;6249641;23;20421;-82
2023/06/15 02:34:28;;;;;;;5.90;4.07;;;17.00;1.00;;;;;;6249144;23;20508;-81
2023/06/15 02:36:54;;;;;;;6.70;3.77;;;17.00;99.90;;;;;;6249066;23;20496;-82
2023/06/15 02:39:22;;;;;;;6.93;4.03;;;16.90;99.90;;;;;;6250535;23;20485;-80
2023/06/15 02:41:48;;;;;;;5.43;3.77;;;16.90;99.90;;;;;;6249460;23;20410;-82
2023/06/15 02:44:15;;;;;;;5.00;3.90;;;16.90;99.90;;;;;;6249288;23;20434;-80
2023/06/15 02:46:44;;;;;;;7.60;4.00;;;16.90;99.90;;;;;;6250354;23;20476;-83
2023/06/15 02:49:11;;;;;;;5.07;4.20;;;16.90;1.00;;;;;;6249513;23;20441;-83
2023/06/15 02:51:38;;;;;;;6.70;3.70;;;16.90;1.00;;;;;;6249990;23;20501;-82
2023/06/15 02:54:05;;;;;;;6.13;4.07;;;16.90;1.00;;;;;;6250140;23;20989;-83
2023/06/15 02:56:35;;;;;;;5.87;3.77;;;16.90;90.00;;;;;;6250107;23;20441;-80
2023/06/15 02:59:02;;;;;;;5.20;3.90;;;16.90;1.00;;;;;;6249922;23;20409;-79
2023/06/15 03:01:36;;;;;;;6.63;3.37;;;16.80;32.30;;;;;;6248867;23;20414;-81
2023/06/15 03:04:09;;;;;;;5.00;4.10;;;16.80;1.00;;;;;;6248809;22;20446;-81
2023/06/15 03:06:36;;;;;;;7.37;4.57;;;16.80;27.80;;;;;;6250189;23;20437;-81
2023/06/15 03:09:04;;;;;;;5.03;4.10;;;16.80;52.40;;;;;;6250135;23;20471;-80
2023/06/15 03:11:30;;;;;;;4.90;3.77;;;16.70;1.00;;;;;;6249661;23;20469;-83
2023/06/15 03:13:57;;;;;;;6.87;4.17;;;16.70;55.70;;;;;;6249238;23;20521;-81
2023/06/15 03:16:24;;;;;;;4.70;3.80;;;16.70;1.00;;;;;;6245690;23;20680;-82
2023/06/15 03:18:52;;;;;;;7.23;4.03;;;16.70;99.90;;;;;;6249221;23;20404;-81
2023/06/15 03:21:22;;;;;;;8.00;3.60;;;16.70;99.90;;;;;;6248689;23;20462;-81
2023/06/15 03:23:50;;;;;;;7.40;4.27;;;16.70;99.90;;;;;;6249946;23;20439;-82
2023/06/15 03:26:17;;;;;;;7.00;3.77;;;16.60;1.00;;;;;;6248737;23;20438;-81
2023/06/15 03:28:45;;;;;;;7.83;4.20;;;16.70;1.00;;;;;;6248036;23;20863;-82
2023/06/15 03:31:12;;;;;;;6.70;4.40;;;16.70;1.00;;;;;;6248438;23;20410;-80
2023/06/15 03:33:39;;;;;;;5.80;3.97;;;16.70;16.60;;;;;;6248856;23;20490;-80
2023/06/15 03:36:08;;;;;;;5.83;4.43;;;16.70;99.90;;;;;;6247816;23;20526;-81
2023/06/15 03:38:36;;;;;;;10.30;5.10;;;16.70;99.90;;;;;;6248847;23;20415;-84
2023/06/15 03:41:03;;;;;;;8.73;4.70;;;16.70;99.90;;;;;;6248799;23;20433;-79
2023/06/15 03:43:29;;;;;;;6.77;4.70;;;16.70;57.60;;;;;;6249019;23;20454;-81
2023/06/15 03:45:56;;;;;;;6.87;4.73;;;16.70;20.10;;;;;;6247820;23;20496;-81
2023/06/15 03:48:23;;;;;;;6.30;4.50;;;16.70;99.90;;;;;;6248431;23;20458;-80
2023/06/15 03:50:50;;;;;;;9.60;4.87;;;16.70;71.20;;;;;;6248568;23;20762;-79
2023/06/15 03:53:17;;;;;;;8.73;4.87;;;16.70;99.90;;;;;;6249049;23;20507;-79
2023/06/15 03:55:45;;;;;;;6.90;4.80;;;16.70;99.90;;;;;;6248115;23;20468;-82
2023/06/15 03:58:11;;;;;;;10.40;5.67;;;16.70;99.90;;;;;;6248955;23;20485;-81
2023/06/15 04:00:38;;;;;;;7.40;3.83;;;16.70;99.90;;;;;;6247470;23;20788;-81
2023/06/15 04:03:05;;;;;;;9.90;4.53;;;16.70;99.90;;;;;;6247000;23;20484;-79
2023/06/15 04:05:32;;;;;;;9.03;4.80;;;16.70;31.10;;;;;;6246307;23;20510;-80
2023/06/15 04:07:59;;;;;;;6.87;4.37;;;16.70;99.90;;;;;;6248427;23;20473;-80
2023/06/15 04:10:26;;;;;;;5.53;4.00;;;16.70;99.90;;;;;;6248108;23;20826;-80
2023/06/15 04:12:54;;;;;;;6.33;4.90;;;16.70;99.90;;;;;;6247716;23;20482;-79
2023/06/15 04:15:21;;;;;;;6.23;4.97;;;16.80;1.00;;;;;;6247613;23;20802;-81
2023/06/15 04:17:48;;;;;;;5.73;4.33;;;16.80;1.00;;;;;;6247146;23;20497;-82
2023/06/15 04:20:16;;;;;;;6.87;5.13;;;16.80;1.00;;;;;;6248805;23;20421;-80
2023/06/15 04:22:42;;;;;;;7.87;4.03;;;16.80;99.90;;;;;;6247942;23;20418;-81
2023/06/15 04:25:09;;;;;;;7.43;4.57;;;16.80;99.90;;;;;;6248029;23;20527;-83
2023/06/15 04:27:36;;;;;;;6.73;4.47;;;16.90;1.00;;;;;;6247857;23;20978;-82
2023/06/15 04:30:05;;;;;;;6.80;4.60;;;16.90;1.00;;;;;;6247502;23;20473;-80
2023/06/15 04:32:32;;;;;;;5.87;5.00;;;17.00;99.90;;;;;;6247172;23;20485;-81
2023/06/15 04:35:01;;;;;;;6.87;4.67;;;17.00;99.90;;;;;;6248378;23;20446;-81
2023/06/15 04:37:28;;;;;;;6.03;5.00;;;17.10;99.90;;;;;;6247759;23;20512;-80
2023/06/15 04:39:56;;;;;;;5.33;4.07;;;17.10;99.90;;;;;;6248262;23;20415;-81
2023/06/15 04:42:23;;;;;;;8.87;5.27;;;17.20;22.60;;;;;;6248619;23;20800;-79
2023/06/15 04:44:50;;;;;;;8.13;5.10;;;17.20;99.90;;;;;;6248243;23;20434;-81
2023/06/15 04:47:18;;;;;;;6.93;5.30;;;17.30;1.00;;;;;;6248673;23;20480;-82
2023/06/15 04:49:45;;;;;;;6.90;5.43;;;17.40;1.00;;;;;;6249591;23;20506;-83
2023/06/15 04:52:12;;;;;;;8.53;5.03;;;17.40;1.00;;;;;;6250717;23;20410;-83
2023/06/15 04:54:39;;;;;;;10.53;4.30;;;17.50;1.00;;;;;;6252950;23;20525;-83
2023/06/15 04:57:08;;;;;;;6.90;5.00;;;17.50;1.00;;;;;;6252393;23;20965;-83
2023/06/15 04:59:35;;;;;;;5.53;4.70;;;17.60;1.00;;;;;;6251706;23;20505;-81
2023/06/15 05:02:02;;;;;;;8.33;5.57;;;17.60;99.90;;;;;;6251692;23;20422;-84
2023/06/15 05:04:30;;;;;;;7.57;5.37;;;17.70;99.90;;;;;;6252065;23;20472;-83
2023/06/15 05:06:57;;;;;;;7.70;5.90;;;17.70;99.90;;;;;;6252041;23;20431;-83
2023/06/15 05:09:24;;;;;;;6.70;5.10;;;17.80;99.90;;;;;;6250916;23;20958;-82
2023/06/15 05:11:50;;;;;;;7.70;5.20;;;17.80;99.90;;;;;;6250483;23;20502;-80
2023/06/15 05:14:17;;;;;;;10.73;5.40;;;17.90;1.00;;;;;;6250161;23;20452;-83
2023/06/15 05:16:44;;;;;;;5.87;5.10;;;17.90;1.00;;;;;;6250199;23;20494;-81
2023/06/15 05:19:11;;;;;;;5.70;5.10;;;18.00;36.60;;;;;;6250148;23;20419;-83
2023/06/15 05:21:39;;;;;;;7.23;4.53;;;18.00;1.00;;;;;;6250295;23;20931;-81
2023/06/15 05:24:07;;;;;;;5.80;4.80;;;18.10;1.00;;;;;;6248993;23;20514;-83
2023/06/15 05:26:33;;;;;;;6.83;5.17;;;18.20;1.00;;;;;;6249627;23;20794;-83
2023/06/15 05:29:00;;;;;;;6.30;4.20;;;18.20;18.10;;;;;;6250683;23;20445;-81
2023/06/15 05:31:27;;;;;;;5.67;4.47;;;18.30;1.00;;;;;;6251881;23;20502;-83
2023/06/15 05:33:54;;;;;;;8.30;4.67;;;18.30;1.00;;;;;;6250770;23;20511;-82
2023/06/15 05:36:30;;;;;;;6.37;4.83;;;18.40;1.00;;;;;;6251253;23;20499;-83
2023/06/15 05:38:58;;;;;;;5.60;4.33;;;18.40;99.90;;;;;;6250536;23;20869;-82
2023/06/15 05:41:25;;;;;;;6.40;4.80;;;18.50;99.90;;;;;;6250158;23;20419;-82
2023/06/15 05:43:52;;;;;;;7.83;4.63;;;18.60;1.00;;;;;;6250875;23;20459;-84
2023/06/15 05:46:18;;;;;;;7.13;4.37;;;18.60;11.90;;;;;;6250121;23;20438;-82
2023/06/15 05:48:45;;;;;;;6.73;5.13;;;18.70;1.00;;;;;;6251117;23;20470;-82
2023/06/15 05:51:12;;;;;;;7.10;5.07;;;18.80;99.90;;;;;;6257760;23;20458;-86
2023/06/15 05:53:39;;;;;;;8.83;5.33;;;18.80;99.90;;;;;;6260376;23;20441;-83
2023/06/15 05:56:07;;;;;;;8.00;5.27;;;18.90;99.90;;;;;;6259402;23;20438;-85
2023/06/15 05:58:34;;;;;;;10.77;5.60;;;18.90;1.00;;;;;;6260326;23;20399;-86
2023/06/15 06:01:01;;;;;;;8.20;4.77;;;18.90;1.00;;;;;;6260511;23;20413;-87
2023/06/15 06:03:28;;;;;;;8.37;5.00;;;19.00;1.00;;;;;;6259729;23;20438;-84
2023/06/15 06:05:55;;;;;;;11.03;5.63;;;19.10;1.00;;;;;;6262082;23;20439;-88
2023/06/15 06:08:23;;;;;;;6.87;4.40;;;19.10;99.90;;;;;;6262320;23;20411;-85
2023/06/15 06:10:50;;;;;;;7.00;4.03;;;19.20;99.90;;;;;;6261223;23;20446;-85
2023/06/15 06:13:18;;;;;;;7.60;5.13;;;19.20;99.90;;;;;;6263229;23;20432;-84
2023/06/15 06:15:45;;;;;;;8.93;5.40;;;19.30;99.90;;;;;;6260676;23;20424;-85
2023/06/15 06:18:12;;;;;;;8.53;5.30;;;19.40;99.90;;;;;;6262112;23;20404;-86
2023/06/15 06:20:38;;;;;;;11.67;5.47;;;19.50;99.90;;;;;;6261213;23;20486;-84
2023/06/15 06:23:05;;;;;;;11.63;4.60;;;19.50;99.90;;;;;;6260658;23;20446;-86
2023/06/15 06:25:32;;;;;;;8.77;4.57;;;19.60;1.40;;;;;;6258751;23;20493;-85
2023/06/15 06:27:59;;;;;;;7.07;4.40;;;19.70;1.70;;;;;;6238886;23;20941;-81
2023/06/15 06:30:27;;;;;;;7.77;4.93;;;19.80;1.00;;;;;;6249154;23;20551;-83
2023/06/15 06:32:54;;;;;;;6.23;4.57;;;19.80;18.60;;;;;;6249650;23;20447;-83
2023/06/15 06:35:21;;;;;;;7.67;4.67;;;19.90;1.00;;;;;;6250751;23;20499;-81
2023/06/15 06:37:48;;;;;;;7.70;4.10;;;20.00;1.00;;;;;;6251920;23;20503;-82
2023/06/15 06:40:15;;;;;;;8.23;4.47;;;20.00;1.00;;;;;;6251581;23;20412;-81
2023/06/15 06:42:44;;;;;;;6.83;4.00;;;20.10;1.00;;;;;;6249135;23;20427;-83
2023/06/15 06:45:11;;;;;;;7.00;4.93;;;20.20;1.00;;;;;;6249642;23;20416;-79
2023/06/15 06:47:39;;;;;;;7.80;5.00;;;20.30;1.00;;;;;;6247279;23;20411;-80
2023/06/15 06:50:07;;;;;;;9.33;4.80;;;20.40;1.00;;;;;;6251047;23;20443;-83
2023/06/15 06:52:34;;;;;;;6.60;4.37;;;20.50;1.00;;;;;;6250678;23;20487;-82
2023/06/15 06:55:01;;;;;;;7.27;4.80;;;20.50;1.00;;;;;;6250305;23;20527;-83
2023/06/15 06:57:27;;;;;;;6.30;4.40;;;20.60;1.00;;;;;;6250099;23;20423;-83
2023/06/15 06:59:54;;;;;;;6.67;4.33;;;20.70;1.00;;;;;;6251145;23;20442;-81
2023/06/15 07:02:21;;;;;;;10.40;4.60;;;20.80;1.00;;;;;;6250324;23;20495;-82
2023/06/15 07:04:49;;;;;;;7.43;4.10;;;20.90;1.00;;;;;;6249947;23;20470;-81
2023/06/15 07:07:16;;;;;;;8.90;4.10;;;20.90;1.00;;;;;;6250117;23;20419;-82
2023/06/15 07:09:43;;;;;;;5.80;3.60;;;21.00;1.00;;;;;;6250230;23;20471;-81
2023/06/15 07:12:10;;;;;;;5.70;4.17;;;21.10;1.00;;;;;;6255551;23;20491;-80
2023/06/15 07:14:37;;;;;;;6.43;4.30;;;21.20;1.00;;;;;;6255273;23;20455;-82
2023/06/15 07:17:05;;;;;;;7.70;3.90;;;21.20;1.00;;;;;;6254945;23;20466;-82
2023/06/15 07:19:32;;;;;;;6.13;4.47;;;21.30;1.00;;;;;;6256080;23;20936;-83
2023/06/15 07:22:01;;;;;;;7.47;5.23;;;21.40;1.00;;;;;;6254938;23;20435;-83
2023/06/15 07:24:28;;;;;;;6.20;4.17;;;21.50;1.00;;;;;;6247827;23;20775;-80
2023/06/15 07:26:56;;;;;;;4.63;3.70;;;21.60;1.00;;;;;;6254361;23;20411;-82
2023/06/15 07:29:23;;;;;;;7.47;3.83;;;21.70;1.00;;;;;;6255680;23;20450;-82
2023/06/15 07:31:52;;;;;;;4.80;3.80;;;21.80;1.00;;;;;;6255040;23;20484;-83
2023/06/15 07:34:19;;;;;;;5.97;3.60;;;21.80;1.00;;;;;;6252273;23;20418;-83
2023/06/15 07:36:46;;;;;;;5.07;3.67;;;22.00;1.00;;;;;;6254698;23;20436;-81
2023/06/15 07:39:14;;;;;;;6.00;3.90;;;22.00;99.90;;;;;;6253941;23;20439;-82
2023/06/15 07:41:40;;;;;;;6.63;3.70;;;22.00;99.90;;;;;;6254578;23;20436;-82
2023/06/15 07:44:11;;;;;;;6.23;3.37;;;22.10;99.90;;;;;;6253392;23;20467;-83
2023/06/15 07:46:39;;;;;;;5.90;3.50;;;22.20;99.90;;;;;;6254350;23;20396;-83
2023/06/15 07:49:06;;;;;;;5.20;3.27;;;22.30;99.90;;;;;;6255099;23;20495;-83
2023/06/15 07:51:33;;;;;;;4.57;3.80;;;22.40;99.90;;;;;;6254099;23;20518;-83
2023/06/15 07:54:00;;;;;;;6.70;3.63;;;22.50;99.90;;;;;;6250838;23;20911;-84
2023/06/15 07:56:28;;;;;;;4.37;2.57;;;22.60;99.90;;;;;;6253022;23;20449;-81
2023/06/15 07:58:58;;;;;;;6.33;3.53;;;22.70;99.90;;;;;;6251967;23;20442;-81
2023/06/15 08:01:25;;;;;;;5.77;3.00;;;22.70;99.90;;;;;;6250967;23;20443;-80
2023/06/15 08:03:52;;;;;;;4.13;2.73;;;22.80;99.90;;;;;;6206481;23;20412;-79
2023/06/15 08:06:19;;;;;;;6.20;2.70;;;23.00;99.90;;;;;;6253962;23;20376;-82
2023/06/15 08:08:46;;;;;;;5.40;3.20;;;23.20;99.90;;;;;;6253524;23;20435;-83
2023/06/15 08:11:13;;;;;;;4.50;3.43;;;23.40;99.90;;;;;;6253614;23;20444;-79
2023/06/15 08:13:41;;;;;;;6.03;3.47;;;23.50;99.90;;;;;;6250415;23;20435;-79
2023/06/15 08:16:08;;;;;;;7.73;3.80;;;23.60;99.90;;;;;;6252900;23;20515;-82
2023/06/15 08:18:35;;;;;;;5.20;3.70;;;23.70;99.90;;;;;;6252676;23;20423;-79
2023/06/15 08:21:03;;;;;;;6.07;3.53;;;23.90;99.90;;;;;;6255064;23;20404;-82
2023/06/15 08:23:29;;;;;;;6.30;3.00;;;24.00;99.90;;;;;;6254900;23;20404;-82
2023/06/15 08:25:56;;;;;;;6.17;3.40;;;24.10;99.90;;;;;;6252687;23;20483;-82
2023/06/15 08:28:26;;;;;;;8.17;3.27;;;24.20;99.90;;;;;;6249886;23;21141;-80
2023/06/15 08:30:54;;;;;;;5.17;3.70;;;24.30;99.90;;;;;;6216051;23;20439;-80
2023/06/15 08:33:22;;;;;;;7.33;4.03;;;24.40;99.90;;;;;;6251531;23;20483;-80
2023/06/15 08:35:48;;;;;;;5.80;3.83;;;24.60;99.90;;;;;;6250544;23;20435;-82
2023/06/15 08:38:15;;;;;;;5.50;3.17;;;24.70;99.90;;;;;;6250580;23;20428;-81
2023/06/15 08:40:42;;;;;;;8.00;3.30;;;24.90;99.90;;;;;;6250771;23;20494;-81
2023/06/15 08:43:10;;;;;;;8.00;4.10;;;25.00;99.90;;;;;;6249680;23;20498;-81
2023/06/15 08:45:41;;;;;;;4.40;3.20;;;25.00;99.90;;;;;;6247273;23;20495;-82
2023/06/15 08:48:13;;;;;;;4.30;3.00;;;25.40;99.90;;;;;;6249464;23;20407;-80
2023/06/15 08:50:41;;;;;;;4.13;3.23;;;25.80;99.90;;;;;;6246894;23;20431;-80
2023/06/15 08:53:09;;;;;;;5.30;3.20;;;26.10;99.90;;;;;;6248524;23;20416;-80
2023/06/15 08:55:36;;;;;;;4.63;2.87;;;26.30;99.90;;;;;;6246908;23;20487;-80
2023/06/15 08:58:10;;;;;;;4.40;3.17;;;26.50;99.90;;;;;;6249667;23;20478;-79
2023/06/15 09:00:36;;;;;;;4.30;3.23;;;26.70;99.90;;;;;;6248901;23;20404;-80
2023/06/15 09:03:07;;;;;;;3.93;2.60;;;27.00;99.90;;;;;;6250597;23;20495;-81
2023/06/15 09:05:36;;;;;;;4.37;3.30;;;27.30;99.90;;;;;;6249498;22;20851;-80
2023/06/15 09:08:04;;;;;;;6.00;3.50;;;27.30;99.90;;;;;;6250093;23;20751;-81
2023/06/15 09:10:36;;;;;;;3.70;3.30;;;27.70;99.90;;;;;;6248329;23;20458;-80
2023/06/15 09:13:03;;;;;;;4.30;3.17;;;27.90;99.90;;;;;;6249274;23;20876;-80
2023/06/15 09:15:31;;;;;;;6.07;2.50;;;28.20;99.90;;;;;;6249339;23;20474;-80
2023/06/15 09:18:02;;;;;;;5.30;3.03;;;28.30;99.90;;;;;;6250089;23;20415;-81
2023/06/15 09:20:31;;;;;;;5.77;3.17;;;28.40;99.90;;;;;;6251428;23;20424;-83
2023/06/15 09:23:01;;;;;;;4.90;2.67;;;28.40;99.90;;;;;;6250019;23;20475;-82
2023/06/15 09:25:30;;;;;;;5.93;3.23;;;28.40;99.90;;;;;;6249560;23;20881;-80
2023/06/15 09:27:58;;;;;;;6.60;3.40;;;28.40;99.90;;;;;;6249942;23;20481;-81
2023/06/15 09:30:32;;;;;;;5.50;3.00;;;28.40;99.90;;;;;;6250500;23;20499;-82
2023/06/15 09:32:59;;;;;;;7.47;3.57;;;28.10;99.90;;;;;;6250005;23;20936;-82
2023/06/15 09:35:26;;;;;;;5.73;3.97;;;27.70;99.90;;;;;;6249935;23;20941;-82
2023/06/15 09:37:55;;;;;;;4.77;2.80;;;27.60;99.90;;;;;;6249041;23;20447;-83
2023/06/15 09:40:25;;;;;;;3.67;2.77;;;27.50;99.90;;;;;;6250145;23;20407;-82
2023/06/15 09:42:55;;;;;;;5.53;3.50;;;27.80;99.90;;;;;;6250979;23;20396;-83
2023/06/15 09:45:22;;;;;;;5.63;3.17;;;27.90;99.90;;;;;;6249518;23;20427;-83
2023/06/15 09:47:54;;;;;;;4.50;2.70;;;28.20;99.90;;;;;;6249202;23;20425;-83
2023/06/15 09:50:27;;;;;;;4.00;2.90;;;28.50;99.90;;;;;;6248666;23;20414;-84
2023/06/15 09:52:56;;;;;;;3.97;2.80;;;28.70;99.90;;;;;;6250999;23;20479;-83
2023/06/15 09:55:25;;;;;;;3.57;2.43;;;28.70;99.90;;;;;;6250684;23;20436;-83
2023/06/15 09:57:52;;;;;;;7.10;2.90;;;28.90;99.90;;;;;;6249609;23;20443;-82
2023/06/15 10:00:20;;;;;;;4.67;2.60;;;29.10;99.90;;;;;;6249070;23;20425;-83
2023/06/15 10:02:48;;;;;;;5.43;3.57;;;29.10;99.90;;;;;;6249373;23;20396;-83
2023/06/15 10:05:17;;;;;;;6.73;3.80;;;29.10;99.90;;;;;;6251030;22;21036;-81
2023/06/15 10:07:49;;;;;;;4.93;3.27;;;29.20;99.90;;;;;;6250434;23;20957;-83
2023/06/15 10:10:17;;;;;;;4.60;2.70;;;29.30;99.90;;;;;;6251426;23;20400;-83
2023/06/15 10:12:49;;;;;;;5.37;3.40;;;29.10;99.90;;;;;;6250328;23;20454;-84
2023/06/15 10:15:20;;;;;;;4.60;3.37;;;28.80;99.90;;;;;;6251786;23;20446;-82
2023/06/15 10:17:51;;;;;;;8.40;3.23;;;28.50;99.90;;;;;;6251074;23;20392;-83
2023/06/15 10:20:18;;;;;;;6.77;3.07;;;28.60;99.90;;;;;;6251524;23;20439;-84
2023/06/15 10:22:50;;;;;;;5.87;2.67;;;28.80;99.90;;;;;;6252302;23;20426;-83
2023/06/15 10:25:19;;;;;;;4.67;2.93;;;28.80;99.90;;;;;;6251113;23;20452;-83
2023/06/15 10:27:48;;;;;;;3.77;2.57;;;29.00;99.90;;;;;;6249928;23;20831;-83
2023/06/15 10:30:25;;;;;;;3.70;2.50;;;29.00;99.90;;;;;;6250927;23;20392;-81
2023/06/15 10:32:58;;;;;;;4.90;3.00;;;29.60;99.90;;;;;;6252838;23;20932;-83
2023/06/15 10:35:30;;;;;;;5.40;3.10;;;30.00;99.90;;;;;;6249339;23;20825;-84
2023/06/15 10:38:07;;;;;;;2.87;2.30;;;30.10;99.90;;;;;;6251839;23;20400;-84
2023/06/15 10:40:40;;;;;;;4.83;2.83;;;30.50;99.90;;;;;;6252174;23;20500;-84
2023/06/15 10:43:08;;;;;;;4.90;3.30;;;31.00;99.90;;;;;;6251494;23;20460;-83
2023/06/15 10:45:35;;;;;;;4.80;2.43;;;31.40;99.90;;;;;;6250214;23;20775;-83
2023/06/15 10:48:04;;;;;;;7.10;2.50;;;31.90;99.90;;;;;;6251346;23;21040;-83
2023/06/15 10:50:39;;;;;;;3.83;2.70;;;32.10;99.90;;;;;;6250070;23;20408;-84
2023/06/15 10:53:06;;;;;;;3.80;2.87;;;32.20;99.90;;;;;;6251822;23;20384;-83
2023/06/15 10:55:33;;;;;;;4.73;2.53;;;32.10;99.90;;;;;;6250212;23;20884;-85
2023/06/15 10:58:17;;;;;;;9.23;3.37;;;31.80;99.90;;;;;;6250043;23;20484;-84
2023/06/15 11:00:45;;;;;;;3.60;2.80;;;31.50;99.90;;;;;;6251128;23;20471;-84
2023/06/15 11:03:25;;;;;;;5.03;2.70;;;31.10;99.90;;;;;;6251291;23;20435;-83
2023/06/15 11:06:02;;;;;;;5.10;3.00;;;30.90;99.90;;;;;;6250496;22;20434;-83
2023/06/15 11:08:32;;;;;;;5.00;2.80;;;30.60;99.90;;;;;;6251910;23;20449;-84
2023/06/15 11:10:59;;;;;;;3.67;2.47;;;30.80;99.90;;;;;;6251531;23;20407;-82
2023/06/15 11:13:28;;;;;;;4.47;2.70;;;30.80;99.90;;;;;;6255777;23;20407;-83
2023/06/15 11:16:09;;;;;;;3.60;2.30;;;30.70;99.90;;;;;;6256918;23;20410;-82
2023/06/15 11:18:36;;;;;;;5.60;2.73;;;30.80;99.90;;;;;;6255705;23;20422;-83
2023/06/15 11:21:03;;;;;;;11.43;2.70;;;31.10;99.90;;;;;;6256309;23;20412;-82
2023/06/15 11:23:33;;;;;;;5.33;2.60;;;31.00;99.90;;;;;;6253780;23;20420;-83
2023/06/15 11:26:02;;;;;;;7.27;2.90;;;31.00;99.90;;;;;;6254039;23;20418;-85
2023/06/15 11:28:34;;;;;;;3.33;2.60;;;31.10;99.90;;;;;;6253316;23;20419;-84
2023/06/15 11:31:02;;;;;;;5.57;3.23;;;31.40;99.90;;;;;;6254027;23;20399;-84
2023/06/15 11:33:36;;;;;;;3.80;2.60;;;31.60;99.90;;;;;;6253328;23;20446;-83
2023/06/15 11:36:10;;;;;;;5.70;3.00;;;31.70;99.90;;;;;;6252808;23;20456;-83
2023/06/15 11:38:37;;;;;;;4.10;2.80;;;31.80;99.90;;;;;;6255263;23;20399;-84
2023/06/15 11:41:07;;;;;;;8.57;3.20;;;31.80;99.90;;;;;;6253874;23;20490;-83
2023/06/15 11:43:40;;;;;;;4.80;2.43;;;32.20;99.90;;;;;;6255359;23;20403;-83
2023/06/15 11:46:10;;;;;;;4.60;2.80;;;32.40;99.90;;;;;;6252538;23;20411;-83
2023/06/15 11:48:37;;;;;;;3.97;2.30;;;32.40;99.90;;;;;;6254977;23;20870;-85
2023/06/15 11:51:08;;;;;;;3.40;2.50;;;32.70;99.90;;;;;;6255485;23;20396;-85
2023/06/15 11:53:35;;;;;;;4.30;2.50;;;32.90;99.90;;;;;;6255650;23;20786;-85
2023/06/15 11:56:02;;;;;;;3.53;2.50;;;33.30;99.90;;;;;;6253611;23;20487;-85
2023/06/15 11:58:29;;;;;;;11.03;3.70;;;33.50;99.90;;;;;;6253733;23;20403;-84
2023/06/15 12:00:57;;;;;;;5.73;2.93;;;33.50;99.90;;;;;;6254252;23;20423;-87
2023/06/15 12:03:26;;;;;;;6.47;2.60;;;33.50;99.90;;;;;;6255439;23;20446;-85
2023/06/15 12:05:57;;;;;;;3.73;2.80;;;33.50;99.90;;;;;;6254984;22;20487;-84
2023/06/15 12:08:25;;;;;;;4.53;2.70;;;33.50;99.90;;;;;;6256341;23;20721;-85
2023/06/15 12:10:53;;;;;;;6.13;3.70;;;33.70;99.90;;;;;;6256824;23;20402;-85
2023/06/15 12:13:20;;;;;;;3.70;2.47;;;33.70;99.90;;;;;;6254078;23;20443;-85
2023/06/15 12:15:48;;;;;;;4.50;2.60;;;33.70;99.90;;;;;;6252589;23;20466;-85
2023/06/15 12:18:17;;;;;;;5.87;2.57;;;33.70;99.90;;;;;;6255812;23;20442;-85
2023/06/15 12:20:45;;;;;;;4.50;2.70;;;33.80;99.90;;;;;;6256377;23;20484;-84
2023/06/15 12:23:12;;;;;;;5.37;2.67;;;33.70;99.90;;;;;;6256378;23;20399;-85
2023/06/15 12:25:43;;;;;;;5.40;2.43;;;34.00;99.90;;;;;;6256023;23;20816;-85
2023/06/15 12:28:14;;;;;;;4.60;2.93;;;34.10;99.90;;;;;;6256099;23;20714;-84
2023/06/15 12:30:42;;;;;;;4.70;3.10;;;34.00;99.90;;;;;;6256468;23;20415;-86
2023/06/15 12:36:03;;;;;;;3.17;1.90;;;34.00;99.90;;;;;;5119177;27;1259085;-83
2023/06/15 12:38:30;;;;;;;5.50;3.00;;;34.00;99.90;;;;;;5139531;28;20439;-82
2023/06/15 12:40:58;;;;;;;4.13;3.00;;;34.40;99.90;;;;;;5131742;28;20480;-82
2023/06/15 12:43:26;;;;;;;3.90;2.50;;;34.00;99.90;;;;;;5130685;28;20465;-82
2023/06/15 12:45:54;;;;;;;4.57;2.60;;;34.40;99.90;;;;;;5096005;28;20442;-83
2023/06/15 12:48:22;;;;;;;3.20;2.23;;;34.60;99.90;;;;;;5103949;28;20449;-83
2023/06/15 12:50:51;;;;;;;4.53;2.63;;;34.80;99.90;;;;;;5116260;28;21017;-81
2023/06/15 12:53:19;;;;;;;3.57;2.30;;;34.90;99.90;;;;;;5115922;28;20530;-83
2023/06/15 12:55:46;;;;;;;3.03;1.90;;;34.90;99.90;;;;;;5116584;28;21045;-82
2023/06/15 12:58:13;;;;;;;4.20;2.17;;;34.40;99.90;;;;;;5117651;28;20446;-82
2023/06/15 13:00:40;;;;;;;4.07;2.13;;;34.80;99.90;;;;;;5115835;28;20982;-84
2023/06/15 13:03:08;;;;;;;3.10;2.37;;;35.30;99.90;;;;;;5116493;28;20900;-85
2023/06/15 13:05:35;;;;;;;4.27;2.33;;;35.40;99.90;;;;;;5117146;28;20463;-85
2023/06/15 13:08:03;;;;;;;3.43;2.30;;;35.60;99.90;;;;;;5117545;28;20445;-83
2023/06/15 13:10:32;;;;;;;3.10;2.20;;;36.00;99.90;;;;;;5116471;28;20454;-85
2023/06/15 13:12:59;;;;;;;3.50;2.20;;;35.90;99.90;;;;;;5100697;28;20450;-85
2023/06/15 13:15:27;;;;;;;3.67;2.43;;;36.00;99.90;;;;;;5115536;28;20481;-83